Time;durP1;ratioP1;P1;durP2;ratioP2;P2;SDS_P1;SDS_P2;PMS_P1;PMS_P2;Temp;Humidity;BMP_temperature;BMP_pressure;BME280_temperature;BME280_humidity;BME280_pressure;Samples;Min_cycle;Max_cycle;Signal;HPM_P1;HPM_P2
2023/12/20 00:00:37;;;;;;;13.63;2.65;;;;;;;4.66;100.00;101194.13;4843602;29;20060;-82
2023/12/20 00:03:05;;;;;;;21.90;3.00;;;;;;;4.62;100.00;101176.59;4854568;29;20433;-79
2023/12/20 00:05:33;;;;;;;13.35;2.10;;;;;;;4.60;100.00;101177.41;4819461;29;20426;-82
2023/12/20 00:08:00;;;;;;;26.52;3.28;;;;;;;4.58;100.00;101174.72;4855949;29;20060;-80
2023/12/20 00:10:28;;;;;;;29.58;3.05;;;;;;;4.56;100.00;101176.41;4853850;29;20052;-79
2023/12/20 00:12:55;;;;;;;15.50;2.30;;;;;;;4.56;100.00;101181.63;4864618;29;20545;-81
2023/12/20 00:15:23;;;;;;;15.15;2.50;;;;;;;4.53;100.00;101178.91;4851176;29;20048;-82
2023/12/20 00:17:50;;;;;;;12.05;2.60;;;;;;;4.53;100.00;101168.47;4865407;29;20415;-81
2023/12/20 00:20:18;;;;;;;15.98;2.60;;;;;;;4.53;100.00;101181.50;4821739;29;20045;-81
2023/12/20 00:22:46;;;;;;;15.57;2.97;;;;;;;4.54;100.00;101191.13;4850506;29;20054;-81
2023/12/20 00:25:13;;;;;;;15.18;2.42;;;;;;;4.56;100.00;101184.22;4855041;29;20056;-80
2023/12/20 00:27:41;;;;;;;16.75;2.60;;;;;;;4.55;100.00;101172.00;4846951;29;20399;-80
2023/12/20 00:30:10;;;;;;;15.52;2.10;;;;;;;4.53;100.00;101165.84;4874872;29;20063;-80
2023/12/20 00:32:38;;;;;;;24.50;3.35;;;;;;;4.51;100.00;101162.31;4840644;29;20492;-81
2023/12/20 00:35:06;;;;;;;15.98;2.85;;;;;;;4.50;100.00;101165.78;4825545;29;20056;-81
2023/12/20 00:37:34;;;;;;;18.05;2.60;;;;;;;4.49;100.00;101159.63;4870657;29;20076;-81
2023/12/20 00:40:01;;;;;;;16.42;2.53;;;;;;;4.48;100.00;101165.72;4855190;29;20060;-82
2023/12/20 00:42:29;;;;;;;15.57;3.00;;;;;;;4.52;100.00;101169.31;4853576;29;20053;-81
2023/12/20 00:44:56;;;;;;;13.80;2.20;;;;;;;4.55;100.00;101172.00;4849837;29;20072;-80
2023/12/20 00:47:23;;;;;;;15.95;2.90;;;;;;;4.56;100.00;101162.47;4845223;29;20755;-81
2023/12/20 00:49:51;;;;;;;11.93;2.30;;;;;;;4.59;100.00;101160.81;4836384;29;22529;-81
2023/12/20 00:52:19;;;;;;;21.35;3.22;;;;;;;4.59;100.00;101158.22;4854602;29;20056;-82
2023/12/20 00:54:46;;;;;;;16.45;2.90;;;;;;;4.58;100.00;101140.81;4854317;29;20068;-81
2023/12/20 00:57:15;;;;;;;9.55;2.40;;;;;;;4.56;100.00;101144.22;4855991;29;20054;-81
2023/12/20 00:59:42;;;;;;;15.18;2.72;;;;;;;4.54;100.00;101143.25;4845544;29;20072;-81
2023/12/20 01:02:12;;;;;;;16.27;3.03;;;;;;;4.52;100.00;101142.31;4855963;29;20076;-81
2023/12/20 01:04:40;;;;;;;19.42;2.65;;;;;;;4.54;100.00;101143.25;4848038;29;20056;-81
2023/12/20 01:07:08;;;;;;;19.88;2.78;;;;;;;4.55;100.00;101147.63;4810997;29;20061;-82
2023/12/20 01:09:35;;;;;;;11.77;1.90;;;;;;;4.57;100.00;101138.13;4871861;29;20442;-80
2023/12/20 01:12:02;;;;;;;11.07;2.97;;;;;;;4.61;100.00;101140.00;4875058;29;20080;-80
2023/12/20 01:14:30;;;;;;;14.43;2.92;;;;;;;4.63;100.00;101144.44;4856939;29;20052;-81
2023/12/20 01:16:57;;;;;;;19.08;2.67;;;;;;;4.67;100.00;101140.22;4858042;29;20061;-80
2023/12/20 01:19:25;;;;;;;17.92;3.20;;;;;;;4.72;100.00;101137.75;4832651;29;20068;-81
2023/12/20 01:21:52;;;;;;;13.20;2.75;;;;;;;4.76;100.00;101142.22;4821830;29;20053;-80
2023/12/20 01:24:20;;;;;;;18.50;3.60;;;;;;;4.81;100.00;101148.47;4863103;29;20053;-79
2023/12/20 01:26:47;;;;;;;12.93;3.35;;;;;;;4.85;100.00;101147.72;4855192;29;20052;-80
2023/12/20 01:29:15;;;;;;;17.50;3.13;;;;;;;4.89;100.00;101133.94;4846308;29;20060;-79
2023/12/20 01:31:43;;;;;;;18.15;3.10;;;;;;;4.92;100.00;101127.94;4853569;29;20065;-82
2023/12/20 01:34:10;;;;;;;20.42;3.47;;;;;;;4.91;100.00;101132.25;4865766;29;20100;-81
2023/12/20 01:36:38;;;;;;;13.25;2.38;;;;;;;4.91;100.00;101133.97;4832718;29;20518;-80
2023/12/20 01:39:06;;;;;;;17.15;3.13;;;;;;;4.92;100.00;101138.38;4842262;29;20049;-80
2023/12/20 01:41:51;;;;;;;16.48;2.72;;;;;;;4.91;100.00;101132.25;4874467;29;20049;-80
2023/12/20 01:44:18;;;;;;;11.88;2.30;;;;;;;4.91;100.00;101129.63;4862570;29;20942;-80
2023/12/20 01:46:47;;;;;;;15.70;2.70;;;;;;;4.92;100.00;101133.16;4872541;29;20049;-80
2023/12/20 01:49:15;;;;;;;14.30;2.83;;;;;;;4.92;100.00;101143.59;4856606;29;20049;-81
2023/12/20 01:51:43;;;;;;;17.63;3.22;;;;;;;4.91;100.00;101137.47;4852678;29;20155;-82
2023/12/20 01:54:12;;;;;;;13.82;2.67;;;;;;;4.89;100.00;101128.69;4821207;29;20078;-80
2023/12/20 01:56:40;;;;;;;18.85;3.25;;;;;;;4.90;100.00;101117.44;4870477;29;20525;-80
2023/12/20 01:59:09;;;;;;;15.95;2.65;;;;;;;4.88;100.00;101119.13;4872840;29;20060;-80
2023/12/20 02:01:36;;;;;;;18.23;2.88;;;;;;;4.87;100.00;101109.50;4859927;29;20048;-80
2023/12/20 02:04:04;;;;;;;18.27;2.40;;;;;;;4.83;100.00;101112.84;4867997;29;20051;-80
2023/12/20 02:06:34;;;;;;;13.93;2.40;;;;;;;4.79;100.00;101096.19;4850163;29;20045;-81
2023/12/20 02:09:03;;;;;;;10.57;2.20;;;;;;;4.76;100.00;101100.44;4838869;29;20049;-81
2023/12/20 02:11:31;;;;;;;13.90;2.25;;;;;;;4.74;100.00;101102.13;4860947;29;20432;-81
2023/12/20 02:13:58;;;;;;;17.98;2.47;;;;;;;4.72;100.00;101089.00;4873378;29;20120;-80
2023/12/20 02:16:26;;;;;;;10.52;2.42;;;;;;;4.71;100.00;101086.34;4858943;29;20060;-81
2023/12/20 02:18:53;;;;;;;13.05;3.25;;;;;;;4.71;100.00;101094.19;4870328;29;20491;-80
2023/12/20 02:21:34;;;;;;;12.60;2.75;;;;;;;4.72;100.00;101082.91;4864152;29;20056;-81
2023/12/20 02:24:02;;;;;;;14.25;3.08;;;;;;;4.72;100.00;101077.69;4816885;29;20525;-80
2023/12/20 02:26:32;;;;;;;18.10;2.97;;;;;;;4.74;100.00;101076.00;4857070;29;20049;-82
2023/12/20 02:29:00;;;;;;;20.45;3.50;;;;;;;4.75;100.00;101072.59;4856167;29;20057;-80
2023/12/20 02:31:27;;;;;;;13.32;3.33;;;;;;;4.76;100.00;101066.50;4858189;29;20045;-80
2023/12/20 02:33:55;;;;;;;11.88;2.60;;;;;;;4.78;100.00;101067.44;4852043;29;20049;-80
2023/12/20 02:36:23;;;;;;;21.13;3.35;;;;;;;4.81;100.00;101077.97;4850079;29;20140;-81
2023/12/20 02:38:50;;;;;;;17.98;3.08;;;;;;;4.81;100.00;101073.63;4837055;29;20064;-79
2023/12/20 02:41:18;;;;;;;18.67;3.47;;;;;;;4.83;100.00;101068.47;4823927;29;20021;-79
2023/12/20 02:43:45;;;;;;;15.43;3.10;;;;;;;4.81;100.00;101052.75;4860175;29;20426;-79
2023/12/20 02:46:16;;;;;;;23.70;3.50;;;;;;;4.82;100.00;101069.28;4873730;29;20041;-81
2023/12/20 02:48:44;;;;;;;19.95;3.75;;;;;;;4.83;100.00;101066.72;4852773;29;20051;-80
2023/12/20 02:51:12;;;;;;;23.10;3.42;;;;;;;4.85;100.00;101056.34;4841582;29;20434;-80
2023/12/20 02:53:39;;;;;;;18.45;3.65;;;;;;;4.85;100.00;101058.94;4868588;29;20044;-80
2023/12/20 02:56:10;;;;;;;22.37;2.93;;;;;;;4.85;100.00;101069.41;4819651;29;20065;-80
2023/12/20 02:58:38;;;;;;;18.63;3.13;;;;;;;4.84;100.00;101047.63;4860910;29;20309;-81
2023/12/20 03:01:05;;;;;;;16.17;3.05;;;;;;;4.85;100.00;101049.38;4856594;29;20111;-80
2023/12/20 03:03:32;;;;;;;20.65;3.70;;;;;;;4.85;100.00;101044.16;4884212;29;20048;-80
2023/12/20 03:06:00;;;;;;;21.95;3.03;;;;;;;4.87;100.00;101041.59;4855367;29;20049;-80
2023/12/20 03:08:28;;;;;;;14.82;2.85;;;;;;;4.88;100.00;101051.22;4851667;29;20079;-81
2023/12/20 03:11:01;;;;;;;17.85;2.92;;;;;;;4.91;100.00;101038.22;4819621;29;20515;-80
2023/12/20 03:13:29;;;;;;;20.40;3.28;;;;;;;4.93;100.00;101036.53;4888048;29;20052;-80
2023/12/20 03:15:56;;;;;;;20.88;3.63;;;;;;;4.94;100.00;101035.72;4861870;29;20053;-81
2023/12/20 03:18:23;;;;;;;23.48;4.22;;;;;;;4.95;100.00;101031.38;4859600;29;20056;-79
2023/12/20 03:20:51;;;;;;;21.92;3.30;;;;;;;4.93;100.00;101020.88;4851592;29;20041;-79
2023/12/20 03:23:19;;;;;;;22.52;3.42;;;;;;;4.90;100.00;101020.81;4863472;29;20049;-79
2023/12/20 03:25:46;;;;;;;28.65;4.75;;;;;;;4.87;100.00;101021.59;4843740;29;20053;-79
2023/12/20 03:28:15;;;;;;;21.92;3.90;;;;;;;4.84;100.00;101018.91;4835238;29;20051;-80
2023/12/20 03:30:43;;;;;;;22.05;3.40;;;;;;;4.83;100.00;101024.94;4858434;29;20052;-80
2023/12/20 03:33:11;;;;;;;20.58;4.28;;;;;;;4.81;100.00;101008.34;4854752;29;20394;-79
2023/12/20 03:35:38;;;;;;;47.83;4.72;;;;;;;4.80;100.00;101006.59;4857557;29;20387;-80
2023/12/20 03:38:06;;;;;;;28.10;4.13;;;;;;;4.80;100.00;101014.44;4845956;29;20057;-80
2023/12/20 03:40:33;;;;;;;25.50;4.22;;;;;;;4.81;100.00;101015.31;4843777;29;20511;-80
2023/12/20 03:43:01;;;;;;;23.38;3.60;;;;;;;4.81;100.00;101012.72;4818494;29;20523;-82
2023/12/20 03:45:28;;;;;;;17.83;3.50;;;;;;;4.78;100.00;101020.44;4857786;29;20075;-80
2023/12/20 03:47:56;;;;;;;25.92;4.45;;;;;;;4.76;100.00;101009.06;4857209;29;20045;-80
2023/12/20 03:50:24;;;;;;;22.08;3.80;;;;;;;4.77;100.00;101001.28;4855550;29;20041;-78
2023/12/20 03:52:52;;;;;;;14.90;3.75;;;;;;;4.81;100.00;101010.09;4852536;29;20049;-79
2023/12/20 03:55:19;;;;;;;19.05;3.58;;;;;;;4.82;100.00;101004.00;4846692;29;20064;-79
2023/12/20 03:57:46;;;;;;;16.05;3.38;;;;;;;4.84;100.00;100998.00;4838871;29;20056;-80
2023/12/20 04:00:15;;;;;;;21.98;3.03;;;;;;;4.88;100.00;101002.47;4856980;29;20057;-79
2023/12/20 04:02:43;;;;;;;16.83;3.45;;;;;;;4.91;100.00;100999.06;4856386;29;20041;-79
2023/12/20 04:05:11;;;;;;;15.05;3.63;;;;;;;4.95;100.00;101003.53;4873332;29;20083;-80
2023/12/20 04:07:38;;;;;;;13.68;2.80;;;;;;;4.93;100.00;100991.28;4852541;29;20064;-79
2023/12/20 04:10:07;;;;;;;20.45;3.60;;;;;;;4.92;100.00;101007.81;4849663;29;20435;-79
2023/12/20 04:12:34;;;;;;;13.45;2.78;;;;;;;4.90;100.00;101002.53;4845354;29;20675;-80
2023/12/20 04:15:08;;;;;;;16.98;3.45;;;;;;;4.90;100.00;100989.47;4817475;29;20045;-79
2023/12/20 04:17:37;;;;;;;18.48;3.30;;;;;;;4.89;100.00;100999.00;4872091;29;20534;-80
2023/12/20 04:20:05;;;;;;;16.05;3.35;;;;;;;4.88;100.00;100992.03;4855769;29;20049;-78
2023/12/20 04:22:33;;;;;;;13.68;3.90;;;;;;;4.90;100.00;100986.84;4859306;29;20033;-80
2023/12/20 04:25:00;;;;;;;17.85;3.47;;;;;;;4.91;100.00;100985.13;4841733;29;20064;-80
2023/12/20 04:27:28;;;;;;;22.38;3.88;;;;;;;4.92;100.00;100984.31;4840348;29;20418;-79
2023/12/20 04:29:55;;;;;;;22.48;5.63;;;;;;;4.93;100.00;100967.78;4822451;29;20053;-79
2023/12/20 04:32:23;;;;;;;25.15;4.43;;;;;;;4.95;100.00;100976.53;4875519;29;20060;-79
2023/12/20 04:34:50;;;;;;;19.58;3.30;;;;;;;4.96;100.00;100981.81;4890896;29;20144;-80
2023/12/20 04:37:17;;;;;;;27.58;4.00;;;;;;;4.99;100.00;100976.69;4860842;29;20057;-79
2023/12/20 04:39:45;;;;;;;33.03;4.82;;;;;;;5.04;100.00;100977.66;4856869;29;24573;-79
2023/12/20 04:42:12;;;;;;;30.65;5.93;;;;;;;5.08;100.00;100976.94;4835833;29;20499;-79
2023/12/20 04:44:40;;;;;;;24.52;4.95;;;;;;;5.12;100.00;100977.88;4876359;29;20045;-79
2023/12/20 04:47:07;;;;;;;29.65;5.18;;;;;;;5.11;100.00;100963.06;4825962;29;20053;-79
2023/12/20 04:49:35;;;;;;;30.35;5.25;;;;;;;5.12;100.00;100963.94;4857875;29;20059;-79
2023/12/20 04:52:02;;;;;;;31.10;4.40;;;;;;;5.12;100.00;100972.66;4860980;29;20057;-79
2023/12/20 04:54:30;;;;;;;24.35;5.22;;;;;;;5.13;100.00;100978.78;4852806;29;20067;-79
2023/12/20 04:56:57;;;;;;;33.97;5.40;;;;;;;5.13;100.00;100982.28;4836763;29;20065;-80
2023/12/20 04:59:25;;;;;;;31.67;4.93;;;;;;;5.16;100.00;100976.22;4872381;29;20435;-80
2023/12/20 05:01:52;;;;;;;38.45;6.78;;;;;;;5.17;100.00;100978.03;4803426;29;20077;-82
2023/12/20 05:04:20;;;;;;;28.75;4.65;;;;;;;5.18;100.00;100974.53;4856086;29;20517;-80
2023/12/20 05:06:49;;;;;;;27.52;4.78;;;;;;;5.21;100.00;100977.25;4854102;29;20055;-80
2023/12/20 05:09:17;;;;;;;25.35;3.90;;;;;;;5.23;100.00;100971.22;4884965;29;20052;-80
2023/12/20 05:11:46;;;;;;;25.42;4.60;;;;;;;5.27;100.00;100980.03;4844734;29;20049;-79
2023/12/20 05:14:13;;;;;;;28.35;4.75;;;;;;;5.32;100.00;100975.81;4842419;29;20069;-80
2023/12/20 05:16:43;;;;;;;28.67;5.15;;;;;;;5.36;100.00;100959.38;4826069;29;20044;-79
2023/12/20 05:19:10;;;;;;;26.23;4.90;;;;;;;5.43;100.00;100970.88;4861229;29;20056;-79
2023/12/20 05:21:38;;;;;;;30.95;4.65;;;;;;;5.49;100.00;100952.75;4858786;29;20507;-78
2023/12/20 05:24:06;;;;;;;26.80;4.32;;;;;;;5.54;100.00;100953.75;4843754;29;20596;-79
2023/12/20 05:26:33;;;;;;;35.63;4.70;;;;;;;5.60;100.00;100963.47;4856207;29;20056;-80
2023/12/20 05:29:01;;;;;;;29.20;4.50;;;;;;;5.62;100.00;100956.56;4838702;29;20057;-79
2023/12/20 05:31:28;;;;;;;24.70;4.63;;;;;;;5.68;100.00;100950.59;4811916;29;20060;-80
2023/12/20 05:33:56;;;;;;;24.38;4.32;;;;;;;5.70;100.00;100948.91;4865860;29;20086;-81
2023/12/20 05:36:24;;;;;;;22.88;4.65;;;;;;;5.72;100.00;100953.31;4873453;29;20053;-79
2023/12/20 05:38:52;;;;;;;22.77;5.43;;;;;;;5.74;100.00;100949.00;4835815;29;20052;-80
2023/12/20 05:41:21;;;;;;;24.27;4.85;;;;;;;5.76;100.00;100944.69;4833311;29;20072;-79
2023/12/20 05:43:49;;;;;;;29.50;5.15;;;;;;;5.78;100.00;100947.34;4833704;29;20045;-79
2023/12/20 05:46:16;;;;;;;19.95;4.60;;;;;;;5.78;100.00;100944.72;4854965;29;20072;-79
2023/12/20 05:48:44;;;;;;;21.23;4.32;;;;;;;5.79;100.00;100949.13;4816809;29;20067;-79
2023/12/20 05:51:12;;;;;;;26.60;5.22;;;;;;;5.79;100.00;100939.53;4847748;29;20069;-79
2023/12/20 05:53:40;;;;;;;38.92;5.20;;;;;;;5.79;100.00;100923.84;4847045;29;20174;-82
2023/12/20 05:56:07;;;;;;;24.02;4.45;;;;;;;5.81;100.00;100927.38;4861997;29;20395;-79
2023/12/20 05:58:35;;;;;;;32.10;4.70;;;;;;;5.81;100.00;100932.59;4840027;29;20112;-78
2023/12/20 06:01:08;;;;;;;27.90;5.18;;;;;;;5.84;100.00;100939.63;4870136;29;20060;-78
2023/12/20 06:03:36;;;;;;;44.92;6.43;;;;;;;5.85;100.00;100929.22;4814603;29;20806;-80
2023/12/20 06:06:07;;;;;;;26.25;4.53;;;;;;;5.88;100.00;100925.81;4857163;29;20087;-79
2023/12/20 06:08:43;;;;;;;32.85;5.05;;;;;;;5.89;100.00;100932.78;4843475;29;20084;-79
2023/12/20 06:11:11;;;;;;;27.45;5.72;;;;;;;5.91;100.00;100928.47;4848594;29;20057;-79
2023/12/20 06:13:39;;;;;;;35.67;4.97;;;;;;;5.92;100.00;100916.31;4853692;29;20056;-80
2023/12/20 06:16:07;;;;;;;26.10;4.90;;;;;;;5.92;100.00;100913.69;4846863;29;20053;-80
2023/12/20 06:18:36;;;;;;;36.58;5.55;;;;;;;5.93;100.00;100918.06;4814187;29;20061;-79
2023/12/20 06:21:07;;;;;;;19.20;4.25;;;;;;;5.94;100.00;100915.47;4871409;29;20060;-79
2023/12/20 06:23:34;;;;;;;26.52;4.85;;;;;;;5.95;100.00;100903.28;4856543;29;20477;-80
2023/12/20 06:26:02;;;;;;;29.67;4.63;;;;;;;5.97;100.00;100915.59;4834331;29;20064;-80
2023/12/20 06:28:30;;;;;;;21.88;4.72;;;;;;;5.99;100.00;100913.00;4845646;29;20147;-79
2023/12/20 06:30:58;;;;;;;36.10;5.65;;;;;;;5.98;100.00;100911.25;4846218;29;20064;-79
2023/12/20 06:33:25;;;;;;;33.42;5.18;;;;;;;5.98;100.00;100903.41;4840649;29;20083;-79
2023/12/20 06:35:53;;;;;;;46.08;6.55;;;;;;;5.99;100.00;100907.75;4797899;29;20052;-79
2023/12/20 06:38:21;;;;;;;21.13;3.97;;;;;;;5.99;100.00;100899.91;4873289;29;20700;-80
2023/12/20 06:40:49;;;;;;;31.05;4.95;;;;;;;5.99;100.00;100886.84;4857422;29;20542;-79
2023/12/20 06:43:16;;;;;;;26.05;5.13;;;;;;;5.99;100.00;100890.34;4829505;29;20057;-78
2023/12/20 06:46:03;;;;;;;23.15;4.32;;;;;;;6.00;100.00;100881.63;4834685;29;20060;-80
2023/12/20 06:48:31;;;;;;;28.75;5.40;;;;;;;6.03;100.00;100881.72;4832718;29;20049;-79
2023/12/20 06:51:01;;;;;;;35.65;5.93;;;;;;;6.05;100.00;100889.59;4807133;29;20080;-80
2023/12/20 06:53:29;;;;;;;19.42;4.53;;;;;;;6.07;100.00;100871.31;4871103;29;20067;-80
2023/12/20 06:55:57;;;;;;;27.15;5.00;;;;;;;6.08;100.00;100881.81;4856884;29;20503;-78
2023/12/20 06:58:24;;;;;;;22.23;4.03;;;;;;;6.10;100.00;100879.22;4853589;29;20045;-78
2023/12/20 07:00:51;;;;;;;32.95;5.63;;;;;;;6.11;100.00;100875.78;4859105;29;20040;-80
2023/12/20 07:03:19;;;;;;;25.42;4.00;;;;;;;6.14;100.00;100876.69;4828490;29;20072;-79
2023/12/20 07:05:46;;;;;;;25.67;4.55;;;;;;;6.15;100.00;100859.28;4820855;29;20053;-80
2023/12/20 07:08:15;;;;;;;28.73;5.35;;;;;;;6.15;100.00;100869.75;4865603;29;20045;-79
2023/12/20 07:10:42;;;;;;;31.63;5.65;;;;;;;6.16;100.00;100851.47;4856931;29;20404;-78
2023/12/20 07:13:10;;;;;;;27.83;5.68;;;;;;;6.17;100.00;100865.44;4864222;29;20045;-81
2023/12/20 07:15:38;;;;;;;25.83;4.70;;;;;;;6.15;100.00;100854.94;4868996;29;20065;-80
2023/12/20 07:18:06;;;;;;;25.98;5.13;;;;;;;6.16;100.00;100854.09;4843234;29;20060;-79
2023/12/20 07:20:37;;;;;;;28.10;5.03;;;;;;;6.16;100.00;100846.25;4828390;29;20082;-79
2023/12/20 07:23:04;;;;;;;29.33;5.60;;;;;;;6.17;100.00;100857.59;4800890;29;20056;-80
2023/12/20 07:25:32;;;;;;;26.00;5.50;;;;;;;6.17;100.00;100853.22;4856819;29;20061;-79
2023/12/20 07:28:00;;;;;;;35.15;5.43;;;;;;;6.20;100.00;100861.16;4851700;29;20060;-79
2023/12/20 07:30:28;;;;;;;35.28;6.13;;;;;;;6.23;100.00;100868.19;4846221;29;20060;-80
2023/12/20 07:32:56;;;;;;;24.48;4.80;;;;;;;6.24;100.00;100849.03;4847501;29;20057;-79
2023/12/20 07:35:25;;;;;;;35.33;5.40;;;;;;;6.27;100.00;100850.81;4835682;29;20092;-80
2023/12/20 07:37:52;;;;;;;36.88;6.20;;;;;;;6.30;100.00;100858.75;4807499;29;20076;-81
2023/12/20 07:40:20;;;;;;;38.33;5.07;;;;;;;6.32;100.00;100852.66;4854375;29;20470;-79
2023/12/20 07:42:48;;;;;;;23.98;5.00;;;;;;;6.35;100.00;100846.59;4856302;29;20053;-79
2023/12/20 07:45:15;;;;;;;23.25;4.68;;;;;;;6.39;100.00;100851.03;4838889;29;20055;-79
2023/12/20 07:47:43;;;;;;;28.92;5.13;;;;;;;6.41;100.00;100875.56;4850157;29;20068;-80
2023/12/20 07:50:11;;;;;;;29.25;4.85;;;;;;;6.44;100.00;100852.03;4806296;29;20068;-79
2023/12/20 07:52:38;;;;;;;28.92;4.80;;;;;;;6.46;100.00;100860.78;4805715;29;20057;-80
2023/12/20 07:55:06;;;;;;;24.92;4.47;;;;;;;6.49;100.00;100862.63;4855421;29;20053;-79
2023/12/20 07:57:34;;;;;;;36.00;5.72;;;;;;;6.50;100.00;100865.22;4856857;29;20068;-80
2023/12/20 08:00:03;;;;;;;24.77;4.43;;;;;;;6.51;100.00;100874.00;4843166;29;20072;-78
2023/12/20 08:02:31;;;;;;;35.85;5.88;;;;;;;6.49;100.00;100866.09;4851043;29;20065;-79
2023/12/20 08:05:01;;;;;;;26.80;4.32;;;;;;;6.47;100.00;100873.03;4848889;29;20061;-79
2023/12/20 08:07:30;;;;;;;26.48;4.80;;;;;;;6.45;100.00;100869.53;4795354;29;20426;-80
2023/12/20 08:09:57;;;;;;;22.95;4.45;;;;;;;6.46;100.00;100875.63;4848673;29;20052;-79
2023/12/20 08:12:27;;;;;;;33.53;4.80;;;;;;;6.47;100.00;100867.81;4862539;29;20045;-81
2023/12/20 08:14:55;;;;;;;32.70;4.95;;;;;;;6.47;100.00;100877.41;4845949;29;20139;-79
2023/12/20 08:17:23;;;;;;;24.33;5.25;;;;;;;6.49;100.00;100867.84;4864221;29;20048;-81
2023/12/20 08:19:51;;;;;;;27.83;5.63;;;;;;;6.51;100.00;100858.28;4863436;29;20415;-79
2023/12/20 08:22:19;;;;;;;23.52;4.80;;;;;;;6.54;100.00;100874.94;4813386;29;20656;-80
2023/12/20 08:24:46;;;;;;;35.05;5.88;;;;;;;6.57;100.00;100868.88;4807219;29;20045;-78
2023/12/20 08:27:14;;;;;;;30.92;5.80;;;;;;;6.59;100.00;100868.03;4845663;29;20061;-79
2023/12/20 08:29:44;;;;;;;31.63;4.93;;;;;;;6.61;100.00;100855.84;4862235;29;20060;-80
2023/12/20 08:32:11;;;;;;;33.58;6.15;;;;;;;6.63;100.00;100931.81;4832908;29;20061;-79
2023/12/20 08:34:39;;;;;;;11.75;2.78;;;;;;;6.53;100.00;100930.75;4856439;29;20515;-79
2023/12/20 08:37:07;;;;;;;9.70;2.08;;;;;;;6.22;100.00;100924.88;4854468;29;20060;-79
2023/12/20 08:39:34;;;;;;;12.32;2.28;;;;;;;5.99;100.00;100915.59;4817516;29;20499;-80
2023/12/20 08:42:02;;;;;;;11.55;2.85;;;;;;;5.80;100.00;100914.25;4855612;29;20056;-79
2023/12/20 08:44:32;;;;;;;7.72;1.50;;;;;;;5.66;100.00;100921.78;4841936;29;20056;-81
2023/12/20 08:46:59;;;;;;;12.23;2.05;;;;;;;5.55;100.00;100913.66;4857484;29;20423;-81
2023/12/20 08:49:27;;;;;;;5.90;1.92;;;;;;;5.43;100.00;100936.91;4854571;29;20555;-80
2023/12/20 08:51:56;;;;;;;6.82;1.75;;;;;;;5.34;100.00;100939.28;4831667;29;20053;-82
2023/12/20 08:54:24;;;;;;;10.65;2.53;;;;;;;5.24;100.00;100939.03;4848077;29;20053;-81
2023/12/20 08:56:52;;;;;;;11.48;1.67;;;;;;;5.18;100.00;100945.81;4811456;29;20061;-81
2023/12/20 08:59:19;;;;;;;12.15;1.83;;;;;;;5.11;100.00;100963.06;4843180;29;20065;-81
2023/12/20 09:01:48;;;;;;;6.10;1.45;;;;;;;5.05;100.00;100989.03;4860246;29;20044;-80
2023/12/20 09:04:16;;;;;;;15.73;2.70;;;;;;;5.02;100.00;100974.13;4851316;29;20101;-79
2023/12/20 09:06:44;;;;;;;9.45;1.48;;;;;;;4.98;100.00;100959.22;4829561;29;20068;-79
2023/12/20 09:09:13;;;;;;;11.93;1.83;;;;;;;4.97;100.00;100970.53;4828086;29;20053;-79
2023/12/20 09:11:41;;;;;;;14.45;1.90;;;;;;;4.94;100.00;100956.50;4814923;29;20164;-81
2023/12/20 09:14:09;;;;;;;8.90;1.77;;;;;;;4.91;100.00;100957.28;4859369;29;20057;-79
2023/12/20 09:16:36;;;;;;;11.77;1.88;;;;;;;4.91;100.00;100951.19;4853544;29;20063;-80
2023/12/20 09:19:04;;;;;;;12.30;1.90;;;;;;;4.87;100.00;100948.47;4847670;29;20414;-80
2023/12/20 09:21:32;;;;;;;10.75;1.90;;;;;;;4.85;100.00;100950.16;4837783;29;20056;-78
2023/12/20 09:23:59;;;;;;;4.57;1.60;;;;;;;4.83;100.00;100943.13;4841447;29;20506;-78
2023/12/20 09:26:28;;;;;;;8.65;1.98;;;;;;;4.84;100.00;100947.53;4824263;29;20056;-79
2023/12/20 09:28:56;;;;;;;13.95;1.95;;;;;;;4.85;100.00;100950.16;4851732;29;20080;-79
2023/12/20 09:31:23;;;;;;;19.00;2.50;;;;;;;4.87;100.00;100956.31;4845564;29;20057;-78
2023/12/20 09:33:51;;;;;;;17.75;2.25;;;;;;;4.89;100.00;100972.91;4855837;29;20503;-81
2023/12/20 09:36:19;;;;;;;6.70;1.27;;;;;;;4.91;100.00;100970.34;4824504;29;20065;-79
2023/12/20 09:38:46;;;;;;;10.10;2.40;;;;;;;4.94;100.00;100970.44;4856362;29;20057;-79
2023/12/20 09:41:14;;;;;;;14.63;2.33;;;;;;;4.97;100.00;100970.53;4853528;29;20078;-78
2023/12/20 09:43:42;;;;;;;15.60;2.72;;;;;;;5.00;100.00;100985.38;4820814;29;20057;-80
2023/12/20 09:46:11;;;;;;;11.70;2.03;;;;;;;5.01;100.00;100982.81;4861775;29;20491;-80
2023/12/20 09:48:40;;;;;;;10.23;1.75;;;;;;;5.00;100.00;100988.88;4866620;29;20049;-79
2023/12/20 09:51:08;;;;;;;14.18;2.08;;;;;;;5.01;100.00;100976.69;4842461;29;20052;-80
2023/12/20 09:53:38;;;;;;;16.25;2.28;;;;;;;5.06;100.00;100980.31;4836048;29;20419;-81
2023/12/20 09:56:07;;;;;;;17.17;2.78;;;;;;;5.15;100.00;100991.03;4845971;29;20045;-79
2023/12/20 09:58:38;;;;;;;9.27;1.70;;;;;;;5.26;100.00;100996.56;4837098;29;20052;-79
2023/12/20 10:01:07;;;;;;;12.25;2.85;;;;;;;5.34;100.00;101002.00;4872299;29;20406;-79
2023/12/20 10:03:40;;;;;;;15.13;2.08;;;;;;;5.39;100.00;101006.50;4833224;29;20057;-79
2023/12/20 10:06:08;;;;;;;16.75;2.53;;;;;;;5.43;100.00;100999.63;4861050;29;20056;-80
2023/12/20 10:08:36;;;;;;;16.35;2.63;;;;;;;5.45;100.00;100996.19;4849781;29;20510;-80
2023/12/20 10:11:05;;;;;;;16.25;3.10;;;;;;;5.49;100.00;100996.28;4861038;29;20048;-80
2023/12/20 10:13:32;;;;;;;12.80;2.40;;;;;;;5.54;100.00;101005.13;4805931;29;20056;-79
2023/12/20 10:16:00;;;;;;;18.35;3.47;;;;;;;5.61;100.00;100997.50;4849725;29;20057;-79
2023/12/20 10:18:29;;;;;;;21.30;3.17;;;;;;;5.72;100.00;100999.50;4864305;29;20053;-79
2023/12/20 10:21:07;;;;;;;14.02;2.80;;;;;;;5.84;100.00;100998.06;4849621;29;20072;-81
2023/12/20 10:23:35;;;;;;;15.82;3.03;;;;;;;5.95;100.00;100993.13;4840615;29;20060;-79
2023/12/20 10:26:02;;;;;;;18.17;3.92;;;;;;;6.04;100.00;100987.25;4861824;29;20045;-79
2023/12/20 10:28:34;;;;;;;14.15;3.50;;;;;;;6.09;100.00;100972.53;4819362;29;20060;-79
2023/12/20 10:31:02;;;;;;;13.68;2.80;;;;;;;6.12;100.00;100983.06;4847857;29;20064;-80
2023/12/20 10:33:34;;;;;;;13.02;2.90;;;;;;;6.17;100.00;100973.59;4869649;29;20069;-81
2023/12/20 10:36:02;;;;;;;19.05;2.88;;;;;;;6.22;100.00;100979.81;4822983;29;20446;-79
2023/12/20 10:38:30;;;;;;;22.08;4.07;;;;;;;6.25;100.00;100965.91;4849603;29;20041;-79
2023/12/20 10:41:03;;;;;;;15.57;3.92;;;;;;;6.25;100.00;100966.78;4843197;29;20053;-79
2023/12/20 10:43:32;;;;;;;21.70;3.55;;;;;;;6.27;100.00;100969.44;4872440;29;20052;-80
2023/12/20 10:46:02;;;;;;;12.18;2.97;;;;;;;6.27;100.00;100963.34;4814238;29;20518;-80
2023/12/20 10:48:31;;;;;;;20.07;3.13;;;;;;;6.27;100.00;100976.44;4876181;29;20049;-80
2023/12/20 10:51:01;;;;;;;16.52;2.83;;;;;;;6.29;100.00;100966.88;4833660;29;20068;-78
2023/12/20 10:53:29;;;;;;;19.80;3.00;;;;;;;6.34;100.00;100966.13;4846104;29;20064;-79
2023/12/20 10:56:00;;;;;;;19.45;4.30;;;;;;;6.37;100.00;100963.59;4842367;29;20045;-79
2023/12/20 10:58:32;;;;;;;20.83;3.90;;;;;;;6.38;100.00;100959.22;4836642;29;20050;-79
2023/12/20 11:01:04;;;;;;;18.98;3.00;;;;;;;6.42;100.00;100958.44;4815144;29;20060;-79
2023/12/20 11:03:37;;;;;;;16.58;4.03;;;;;;;6.47;100.00;100950.72;4844820;29;20421;-79
2023/12/20 11:06:15;;;;;;;19.00;4.00;;;;;;;6.48;100.00;100955.06;4834676;29;20060;-80
2023/12/20 11:09:09;;;;;;;22.05;4.20;;;;;;;6.52;100.00;100951.66;4849282;29;20154;-79
2023/12/20 11:12:07;;;;;;;20.88;4.15;;;;;;;6.55;100.00;100960.47;4848266;29;20525;-79
2023/12/20 11:14:47;;;;;;;18.95;3.92;;;;;;;6.59;100.00;100956.19;4793826;29;22522;-79
2023/12/20 11:17:16;;;;;;;11.10;3.33;;;;;;;6.60;100.00;100952.75;4853689;29;20056;-79
2023/12/20 11:19:56;;;;;;;19.58;3.45;;;;;;;6.61;100.00;100946.63;4852998;29;20064;-78
2023/12/20 11:22:25;;;;;;;18.05;3.45;;;;;;;6.59;100.00;100943.97;4847312;29;20056;-80